sensor_id;sensor_type;location;lat;lon;timestamp;P1;durP1;ratioP1;P2;durP2;ratioP2
11548;SDS011;61444;59.472;18.306;2023-05-10T00:01:28;7.63;;;5.17;;
11548;SDS011;61444;59.472;18.306;2023-05-10T00:03:37;9.47;;;4.17;;
11548;SDS011;61444;59.472;18.306;2023-05-10T00:05:47;6.67;;;4.33;;
11548;SDS011;61444;59.472;18.306;2023-05-10T00:07:55;6.90;;;4.40;;
11548;SDS011;61444;59.472;18.306;2023-05-10T00:10:06;7.17;;;4.57;;
11548;SDS011;61444;59.472;18.306;2023-05-10T00:12:15;5.23;;;4.20;;
11548;SDS011;61444;59.472;18.306;2023-05-10T00:14:23;8.00;;;4.40;;
11548;SDS011;61444;59.472;18.306;2023-05-10T00:16:32;7.43;;;4.00;;
11548;SDS011;61444;59.472;18.306;2023-05-10T00:18:41;6.73;;;4.90;;
11548;SDS011;61444;59.472;18.306;2023-05-10T00:20:49;6.03;;;4.40;;
11548;SDS011;61444;59.472;18.306;2023-05-10T00:22:58;5.60;;;4.43;;
11548;SDS011;61444;59.472;18.306;2023-05-10T00:25:11;7.07;;;4.30;;
11548;SDS011;61444;59.472;18.306;2023-05-10T00:27:19;5.10;;;3.90;;
11548;SDS011;61444;59.472;18.306;2023-05-10T00:29:28;10.00;;;4.90;;
11548;SDS011;61444;59.472;18.306;2023-05-10T00:31:38;6.70;;;4.37;;
11548;SDS011;61444;59.472;18.306;2023-05-10T00:33:46;8.63;;;4.30;;
11548;SDS011;61444;59.472;18.306;2023-05-10T00:35:55;8.17;;;4.30;;
11548;SDS011;61444;59.472;18.306;2023-05-10T00:38:03;6.37;;;4.70;;
11548;SDS011;61444;59.472;18.306;2023-05-10T00:40:14;7.30;;;4.17;;
11548;SDS011;61444;59.472;18.306;2023-05-10T00:42:23;7.53;;;4.63;;
11548;SDS011;61444;59.472;18.306;2023-05-10T00:44:32;8.27;;;5.00;;
11548;SDS011;61444;59.472;18.306;2023-05-10T00:46:40;5.73;;;4.40;;
11548;SDS011;61444;59.472;18.306;2023-05-10T00:48:49;9.17;;;4.80;;
11548;SDS011;61444;59.472;18.306;2023-05-10T00:50:58;6.77;;;4.03;;
11548;SDS011;61444;59.472;18.306;2023-05-10T00:53:08;7.20;;;4.50;;
11548;SDS011;61444;59.472;18.306;2023-05-10T00:55:19;9.10;;;3.97;;
11548;SDS011;61444;59.472;18.306;2023-05-10T00:57:28;10.07;;;4.37;;
11548;SDS011;61444;59.472;18.306;2023-05-10T00:59:36;8.07;;;4.40;;
11548;SDS011;61444;59.472;18.306;2023-05-10T01:01:45;10.37;;;4.50;;
11548;SDS011;61444;59.472;18.306;2023-05-10T01:03:54;7.40;;;4.30;;
11548;SDS011;61444;59.472;18.306;2023-05-10T01:06:04;6.73;;;4.60;;
11548;SDS011;61444;59.472;18.306;2023-05-10T01:08:14;6.67;;;4.50;;
11548;SDS011;61444;59.472;18.306;2023-05-10T01:10:24;6.50;;;4.27;;
11548;SDS011;61444;59.472;18.306;2023-05-10T01:12:32;8.13;;;4.47;;
11548;SDS011;61444;59.472;18.306;2023-05-10T01:14:42;7.10;;;4.60;;
11548;SDS011;61444;59.472;18.306;2023-05-10T01:16:51;7.07;;;4.40;;
11548;SDS011;61444;59.472;18.306;2023-05-10T01:19:01;7.67;;;4.30;;
11548;SDS011;61444;59.472;18.306;2023-05-10T01:21:14;6.73;;;4.40;;
11548;SDS011;61444;59.472;18.306;2023-05-10T01:23:38;6.87;;;4.73;;
11548;SDS011;61444;59.472;18.306;2023-05-10T01:28:35;6.27;;;4.33;;
11548;SDS011;61444;59.472;18.306;2023-05-10T01:33:40;6.40;;;4.23;;
11548;SDS011;61444;59.472;18.306;2023-05-10T01:35:55;5.00;;;4.00;;
11548;SDS011;61444;59.472;18.306;2023-05-10T01:38:22;6.13;;;4.10;;
11548;SDS011;61444;59.472;18.306;2023-05-10T01:40:39;6.10;;;4.23;;
11548;SDS011;61444;59.472;18.306;2023-05-10T01:42:55;7.53;;;4.60;;
11548;SDS011;61444;59.472;18.306;2023-05-10T01:45:11;7.60;;;4.50;;
11548;SDS011;61444;59.472;18.306;2023-05-10T01:47:27;5.50;;;4.23;;
11548;SDS011;61444;59.472;18.306;2023-05-10T01:49:45;6.27;;;4.23;;
11548;SDS011;61444;59.472;18.306;2023-05-10T01:51:59;6.23;;;4.30;;
11548;SDS011;61444;59.472;18.306;2023-05-10T01:54:11;7.70;;;4.40;;
11548;SDS011;61444;59.472;18.306;2023-05-10T01:56:23;8.53;;;4.67;;
11548;SDS011;61444;59.472;18.306;2023-05-10T01:58:34;8.00;;;4.40;;
11548;SDS011;61444;59.472;18.306;2023-05-10T02:00:47;4.97;;;4.00;;
11548;SDS011;61444;59.472;18.306;2023-05-10T02:02:57;6.10;;;4.10;;
11548;SDS011;61444;59.472;18.306;2023-05-10T02:05:09;7.10;;;4.47;;
11548;SDS011;61444;59.472;18.306;2023-05-10T02:07:21;7.47;;;4.30;;
11548;SDS011;61444;59.472;18.306;2023-05-10T02:09:31;5.30;;;4.10;;
11548;SDS011;61444;59.472;18.306;2023-05-10T02:13:51;7.73;;;4.80;;
11548;SDS011;61444;59.472;18.306;2023-05-10T02:16:02;5.53;;;4.00;;
11548;SDS011;61444;59.472;18.306;2023-05-10T02:18:12;6.50;;;4.20;;
11548;SDS011;61444;59.472;18.306;2023-05-10T02:20:24;9.00;;;4.80;;
11548;SDS011;61444;59.472;18.306;2023-05-10T02:22:34;5.07;;;4.30;;
11548;SDS011;61444;59.472;18.306;2023-05-10T02:24:45;7.10;;;4.40;;
11548;SDS011;61444;59.472;18.306;2023-05-10T02:26:55;6.67;;;4.73;;
11548;SDS011;61444;59.472;18.306;2023-05-10T02:29:05;8.60;;;4.77;;
11548;SDS011;61444;59.472;18.306;2023-05-10T02:31:15;7.80;;;4.60;;
11548;SDS011;61444;59.472;18.306;2023-05-10T02:33:25;7.17;;;4.37;;
11548;SDS011;61444;59.472;18.306;2023-05-10T02:35:37;5.87;;;4.30;;
11548;SDS011;61444;59.472;18.306;2023-05-10T02:37:46;6.43;;;4.27;;
11548;SDS011;61444;59.472;18.306;2023-05-10T02:39:57;6.53;;;4.57;;
11548;SDS011;61444;59.472;18.306;2023-05-10T02:42:07;7.80;;;4.70;;
11548;SDS011;61444;59.472;18.306;2023-05-10T02:44:17;6.67;;;3.90;;
11548;SDS011;61444;59.472;18.306;2023-05-10T02:46:27;6.00;;;4.30;;
11548;SDS011;61444;59.472;18.306;2023-05-10T02:48:36;4.37;;;3.87;;
11548;SDS011;61444;59.472;18.306;2023-05-10T02:50:46;7.60;;;3.97;;
11548;SDS011;61444;59.472;18.306;2023-05-10T02:52:59;6.03;;;4.77;;
11548;SDS011;61444;59.472;18.306;2023-05-10T02:55:09;5.70;;;4.50;;
11548;SDS011;61444;59.472;18.306;2023-05-10T02:57:27;4.67;;;4.20;;
11548;SDS011;61444;59.472;18.306;2023-05-10T02:59:40;8.27;;;4.47;;
11548;SDS011;61444;59.472;18.306;2023-05-10T03:01:49;5.17;;;4.37;;
11548;SDS011;61444;59.472;18.306;2023-05-10T03:03:58;7.17;;;4.87;;
11548;SDS011;61444;59.472;18.306;2023-05-10T03:06:08;6.90;;;4.37;;
11548;SDS011;61444;59.472;18.306;2023-05-10T03:08:16;5.87;;;4.67;;
11548;SDS011;61444;59.472;18.306;2023-05-10T03:10:26;5.57;;;4.53;;
11548;SDS011;61444;59.472;18.306;2023-05-10T03:12:44;6.40;;;4.40;;
11548;SDS011;61444;59.472;18.306;2023-05-10T03:15:07;8.77;;;4.77;;
11548;SDS011;61444;59.472;18.306;2023-05-10T03:17:23;5.93;;;4.43;;
11548;SDS011;61444;59.472;18.306;2023-05-10T03:19:39;7.97;;;5.00;;
11548;SDS011;61444;59.472;18.306;2023-05-10T03:21:55;8.60;;;5.70;;
11548;SDS011;61444;59.472;18.306;2023-05-10T03:24:11;7.50;;;4.90;;
11548;SDS011;61444;59.472;18.306;2023-05-10T03:26:23;7.43;;;4.80;;
11548;SDS011;61444;59.472;18.306;2023-05-10T03:28:35;6.27;;;4.93;;
11548;SDS011;61444;59.472;18.306;2023-05-10T03:30:44;7.00;;;4.90;;
11548;SDS011;61444;59.472;18.306;2023-05-10T03:32:53;8.77;;;5.90;;
11548;SDS011;61444;59.472;18.306;2023-05-10T03:35:06;8.20;;;5.50;;
11548;SDS011;61444;59.472;18.306;2023-05-10T03:37:16;7.03;;;4.30;;
11548;SDS011;61444;59.472;18.306;2023-05-10T03:39:25;5.93;;;4.27;;
11548;SDS011;61444;59.472;18.306;2023-05-10T03:41:33;5.97;;;4.80;;
11548;SDS011;61444;59.472;18.306;2023-05-10T03:43:42;5.73;;;4.37;;
11548;SDS011;61444;59.472;18.306;2023-05-10T03:45:50;7.77;;;5.10;;
11548;SDS011;61444;59.472;18.306;2023-05-10T03:47:59;7.40;;;5.00;;
11548;SDS011;61444;59.472;18.306;2023-05-10T03:50:08;7.83;;;5.20;;
11548;SDS011;61444;59.472;18.306;2023-05-10T03:52:19;7.50;;;5.50;;
11548;SDS011;61444;59.472;18.306;2023-05-10T03:54:28;6.73;;;4.63;;
11548;SDS011;61444;59.472;18.306;2023-05-10T03:56:36;6.93;;;5.13;;
11548;SDS011;61444;59.472;18.306;2023-05-10T03:58:45;6.40;;;4.57;;
11548;SDS011;61444;59.472;18.306;2023-05-10T04:00:54;7.60;;;4.87;;
11548;SDS011;61444;59.472;18.306;2023-05-10T04:03:02;12.30;;;4.73;;
11548;SDS011;61444;59.472;18.306;2023-05-10T04:05:11;14.20;;;5.30;;
11548;SDS011;61444;59.472;18.306;2023-05-10T04:07:21;13.87;;;5.57;;
11548;SDS011;61444;59.472;18.306;2023-05-10T04:09:30;6.77;;;4.80;;
11548;SDS011;61444;59.472;18.306;2023-05-10T04:11:39;8.17;;;4.67;;
11548;SDS011;61444;59.472;18.306;2023-05-10T04:13:48;10.77;;;4.87;;
11548;SDS011;61444;59.472;18.306;2023-05-10T04:15:56;8.40;;;4.80;;
11548;SDS011;61444;59.472;18.306;2023-05-10T04:18:05;6.50;;;4.97;;
11548;SDS011;61444;59.472;18.306;2023-05-10T04:20:14;9.73;;;4.77;;
11548;SDS011;61444;59.472;18.306;2023-05-10T04:22:25;7.60;;;4.90;;
11548;SDS011;61444;59.472;18.306;2023-05-10T04:24:34;11.70;;;4.97;;
11548;SDS011;61444;59.472;18.306;2023-05-10T04:26:43;9.37;;;4.80;;
11548;SDS011;61444;59.472;18.306;2023-05-10T04:28:51;6.93;;;4.73;;
11548;SDS011;61444;59.472;18.306;2023-05-10T04:31:00;10.90;;;4.63;;
11548;SDS011;61444;59.472;18.306;2023-05-10T04:33:10;6.80;;;4.50;;
11548;SDS011;61444;59.472;18.306;2023-05-10T04:35:18;6.20;;;4.60;;
11548;SDS011;61444;59.472;18.306;2023-05-10T04:37:29;7.07;;;4.40;;
11548;SDS011;61444;59.472;18.306;2023-05-10T04:39:37;7.93;;;4.30;;
11548;SDS011;61444;59.472;18.306;2023-05-10T04:41:47;8.03;;;4.77;;
11548;SDS011;61444;59.472;18.306;2023-05-10T04:43:56;6.67;;;4.87;;
11548;SDS011;61444;59.472;18.306;2023-05-10T04:46:04;6.37;;;4.33;;
11548;SDS011;61444;59.472;18.306;2023-05-10T04:48:14;7.67;;;4.50;;
11548;SDS011;61444;59.472;18.306;2023-05-10T04:50:22;8.67;;;4.53;;
11548;SDS011;61444;59.472;18.306;2023-05-10T04:52:33;6.80;;;4.37;;
11548;SDS011;61444;59.472;18.306;2023-05-10T04:54:42;6.43;;;4.50;;
11548;SDS011;61444;59.472;18.306;2023-05-10T04:56:51;8.23;;;4.40;;
11548;SDS011;61444;59.472;18.306;2023-05-10T04:59:01;5.63;;;4.43;;
11548;SDS011;61444;59.472;18.306;2023-05-10T05:01:10;7.13;;;4.40;;
11548;SDS011;61444;59.472;18.306;2023-05-10T05:03:18;6.37;;;4.20;;
11548;SDS011;61444;59.472;18.306;2023-05-10T05:05:27;5.60;;;4.03;;
11548;SDS011;61444;59.472;18.306;2023-05-10T05:07:37;4.53;;;4.13;;
11548;SDS011;61444;59.472;18.306;2023-05-10T05:09:46;6.90;;;5.07;;
11548;SDS011;61444;59.472;18.306;2023-05-10T05:11:55;5.20;;;4.20;;
11548;SDS011;61444;59.472;18.306;2023-05-10T05:14:04;9.43;;;4.30;;
11548;SDS011;61444;59.472;18.306;2023-05-10T05:16:12;8.73;;;4.07;;
11548;SDS011;61444;59.472;18.306;2023-05-10T05:18:21;6.23;;;3.97;;
11548;SDS011;61444;59.472;18.306;2023-05-10T05:20:31;9.97;;;4.33;;
11548;SDS011;61444;59.472;18.306;2023-05-10T05:22:42;12.50;;;4.53;;
11548;SDS011;61444;59.472;18.306;2023-05-10T05:24:50;5.73;;;3.60;;
11548;SDS011;61444;59.472;18.306;2023-05-10T05:26:59;6.50;;;4.00;;
11548;SDS011;61444;59.472;18.306;2023-05-10T05:29:08;6.00;;;3.97;;
11548;SDS011;61444;59.472;18.306;2023-05-10T05:31:16;10.67;;;4.53;;
11548;SDS011;61444;59.472;18.306;2023-05-10T05:33:25;8.53;;;4.10;;
11548;SDS011;61444;59.472;18.306;2023-05-10T05:35:34;6.80;;;4.00;;
11548;SDS011;61444;59.472;18.306;2023-05-10T05:37:44;9.60;;;3.97;;
11548;SDS011;61444;59.472;18.306;2023-05-10T05:39:53;5.97;;;3.57;;
11548;SDS011;61444;59.472;18.306;2023-05-10T05:42:01;8.50;;;4.10;;
11548;SDS011;61444;59.472;18.306;2023-05-10T05:44:10;5.47;;;3.77;;
11548;SDS011;61444;59.472;18.306;2023-05-10T05:46:19;5.50;;;3.53;;
11548;SDS011;61444;59.472;18.306;2023-05-10T05:48:29;5.43;;;3.73;;
11548;SDS011;61444;59.472;18.306;2023-05-10T05:50:37;9.20;;;4.00;;
11548;SDS011;61444;59.472;18.306;2023-05-10T05:52:48;6.40;;;3.83;;
11548;SDS011;61444;59.472;18.306;2023-05-10T05:54:57;7.30;;;3.93;;
11548;SDS011;61444;59.472;18.306;2023-05-10T05:57:06;6.57;;;3.97;;
11548;SDS011;61444;59.472;18.306;2023-05-10T05:59:15;13.07;;;4.33;;
11548;SDS011;61444;59.472;18.306;2023-05-10T06:01:24;6.83;;;4.10;;
11548;SDS011;61444;59.472;18.306;2023-05-10T06:03:33;8.63;;;3.90;;
11548;SDS011;61444;59.472;18.306;2023-05-10T06:05:41;6.90;;;3.80;;
11548;SDS011;61444;59.472;18.306;2023-05-10T06:07:51;6.17;;;3.87;;
11548;SDS011;61444;59.472;18.306;2023-05-10T06:10:00;5.57;;;3.43;;
11548;SDS011;61444;59.472;18.306;2023-05-10T06:12:09;5.93;;;3.73;;
11548;SDS011;61444;59.472;18.306;2023-05-10T06:14:19;5.80;;;4.10;;
11548;SDS011;61444;59.472;18.306;2023-05-10T06:16:28;4.27;;;3.87;;
11548;SDS011;61444;59.472;18.306;2023-05-10T06:18:37;7.10;;;4.27;;
11548;SDS011;61444;59.472;18.306;2023-05-10T06:20:46;9.27;;;4.10;;
11548;SDS011;61444;59.472;18.306;2023-05-10T06:22:56;12.13;;;3.77;;
11548;SDS011;61444;59.472;18.306;2023-05-10T06:25:05;12.10;;;3.77;;
11548;SDS011;61444;59.472;18.306;2023-05-10T06:27:15;5.60;;;3.80;;
11548;SDS011;61444;59.472;18.306;2023-05-10T06:29:23;6.97;;;3.50;;
11548;SDS011;61444;59.472;18.306;2023-05-10T06:31:32;4.97;;;4.03;;
11548;SDS011;61444;59.472;18.306;2023-05-10T06:33:41;5.77;;;3.73;;
11548;SDS011;61444;59.472;18.306;2023-05-10T06:35:50;5.93;;;3.93;;
11548;SDS011;61444;59.472;18.306;2023-05-10T06:38:00;5.50;;;3.77;;
11548;SDS011;61444;59.472;18.306;2023-05-10T06:40:09;5.00;;;3.57;;
11548;SDS011;61444;59.472;18.306;2023-05-10T06:42:18;6.20;;;3.40;;
11548;SDS011;61444;59.472;18.306;2023-05-10T06:44:27;8.43;;;3.70;;
11548;SDS011;61444;59.472;18.306;2023-05-10T06:46:35;8.53;;;3.27;;
11548;SDS011;61444;59.472;18.306;2023-05-10T06:48:45;6.10;;;3.70;;
11548;SDS011;61444;59.472;18.306;2023-05-10T06:50:54;5.27;;;3.17;;
11548;SDS011;61444;59.472;18.306;2023-05-10T06:53:04;8.87;;;3.90;;
11548;SDS011;61444;59.472;18.306;2023-05-10T06:55:16;6.60;;;3.57;;
11548;SDS011;61444;59.472;18.306;2023-05-10T06:57:24;5.93;;;3.53;;
11548;SDS011;61444;59.472;18.306;2023-05-10T06:59:37;6.17;;;3.43;;
11548;SDS011;61444;59.472;18.306;2023-05-10T07:01:46;5.00;;;3.67;;
11548;SDS011;61444;59.472;18.306;2023-05-10T07:03:55;11.03;;;3.50;;
11548;SDS011;61444;59.472;18.306;2023-05-10T07:06:04;5.67;;;3.53;;
11548;SDS011;61444;59.472;18.306;2023-05-10T07:08:25;7.47;;;3.53;;
11548;SDS011;61444;59.472;18.306;2023-05-10T07:10:33;5.17;;;3.87;;
11548;SDS011;61444;59.472;18.306;2023-05-10T07:12:42;4.33;;;3.50;;
11548;SDS011;61444;59.472;18.306;2023-05-10T07:14:51;5.17;;;3.27;;
11548;SDS011;61444;59.472;18.306;2023-05-10T07:17:00;6.00;;;3.80;;
11548;SDS011;61444;59.472;18.306;2023-05-10T07:19:08;8.27;;;3.53;;
11548;SDS011;61444;59.472;18.306;2023-05-10T07:21:18;6.60;;;3.40;;
11548;SDS011;61444;59.472;18.306;2023-05-10T07:23:28;9.30;;;3.73;;
11548;SDS011;61444;59.472;18.306;2023-05-10T07:25:37;7.13;;;3.23;;
11548;SDS011;61444;59.472;18.306;2023-05-10T07:27:45;8.07;;;3.60;;
11548;SDS011;61444;59.472;18.306;2023-05-10T07:29:55;5.03;;;3.40;;
11548;SDS011;61444;59.472;18.306;2023-05-10T07:32:03;9.33;;;3.60;;
11548;SDS011;61444;59.472;18.306;2023-05-10T07:34:12;8.57;;;3.33;;
11548;SDS011;61444;59.472;18.306;2023-05-10T07:36:21;7.70;;;3.87;;
11548;SDS011;61444;59.472;18.306;2023-05-10T07:38:31;7.90;;;3.47;;
11548;SDS011;61444;59.472;18.306;2023-05-10T07:40:40;6.40;;;3.30;;
11548;SDS011;61444;59.472;18.306;2023-05-10T07:42:48;4.33;;;3.40;;
11548;SDS011;61444;59.472;18.306;2023-05-10T07:44:57;6.07;;;3.30;;
11548;SDS011;61444;59.472;18.306;2023-05-10T07:47:05;5.20;;;3.23;;
11548;SDS011;61444;59.472;18.306;2023-05-10T07:49:14;3.70;;;3.30;;
11548;SDS011;61444;59.472;18.306;2023-05-10T07:51:23;6.70;;;3.37;;
11548;SDS011;61444;59.472;18.306;2023-05-10T07:53:34;3.97;;;3.53;;
11548;SDS011;61444;59.472;18.306;2023-05-10T07:55:42;5.23;;;3.30;;
11548;SDS011;61444;59.472;18.306;2023-05-10T07:57:51;4.87;;;3.70;;
11548;SDS011;61444;59.472;18.306;2023-05-10T07:59:59;4.53;;;3.60;;
11548;SDS011;61444;59.472;18.306;2023-05-10T08:02:08;7.20;;;3.63;;
11548;SDS011;61444;59.472;18.306;2023-05-10T08:04:17;7.27;;;3.40;;
11548;SDS011;61444;59.472;18.306;2023-05-10T08:06:25;5.20;;;3.47;;
11548;SDS011;61444;59.472;18.306;2023-05-10T08:08:39;6.77;;;3.50;;
11548;SDS011;61444;59.472;18.306;2023-05-10T08:10:47;6.67;;;3.50;;
11548;SDS011;61444;59.472;18.306;2023-05-10T08:12:56;7.07;;;3.50;;
11548;SDS011;61444;59.472;18.306;2023-05-10T08:15:06;4.90;;;3.70;;
11548;SDS011;61444;59.472;18.306;2023-05-10T08:17:15;6.00;;;3.60;;
11548;SDS011;61444;59.472;18.306;2023-05-10T08:19:25;5.77;;;3.40;;
11548;SDS011;61444;59.472;18.306;2023-05-10T08:21:34;5.03;;;3.47;;
11548;SDS011;61444;59.472;18.306;2023-05-10T08:23:45;6.57;;;3.50;;
11548;SDS011;61444;59.472;18.306;2023-05-10T08:25:53;6.10;;;3.40;;
11548;SDS011;61444;59.472;18.306;2023-05-10T08:28:02;4.10;;;3.00;;
11548;SDS011;61444;59.472;18.306;2023-05-10T08:30:11;7.20;;;3.50;;
11548;SDS011;61444;59.472;18.306;2023-05-10T08:32:20;4.70;;;3.40;;
11548;SDS011;61444;59.472;18.306;2023-05-10T08:34:28;5.23;;;3.40;;
11548;SDS011;61444;59.472;18.306;2023-05-10T08:36:37;6.33;;;3.60;;
11548;SDS011;61444;59.472;18.306;2023-05-10T08:38:49;8.83;;;3.70;;
11548;SDS011;61444;59.472;18.306;2023-05-10T08:40:58;5.67;;;3.17;;
11548;SDS011;61444;59.472;18.306;2023-05-10T08:43:10;3.93;;;3.50;;
11548;SDS011;61444;59.472;18.306;2023-05-10T08:45:21;7.47;;;3.30;;
11548;SDS011;61444;59.472;18.306;2023-05-10T08:47:32;4.67;;;3.30;;
11548;SDS011;61444;59.472;18.306;2023-05-10T08:49:41;7.97;;;3.30;;
11548;SDS011;61444;59.472;18.306;2023-05-10T08:51:54;9.77;;;4.33;;
11548;SDS011;61444;59.472;18.306;2023-05-10T08:54:06;6.40;;;3.27;;
11548;SDS011;61444;59.472;18.306;2023-05-10T08:56:14;6.83;;;3.40;;
11548;SDS011;61444;59.472;18.306;2023-05-10T08:58:24;6.27;;;3.60;;
11548;SDS011;61444;59.472;18.306;2023-05-10T09:00:34;5.20;;;3.43;;
11548;SDS011;61444;59.472;18.306;2023-05-10T09:02:43;9.20;;;4.07;;
11548;SDS011;61444;59.472;18.306;2023-05-10T09:04:53;5.70;;;3.70;;
11548;SDS011;61444;59.472;18.306;2023-05-10T09:07:02;5.77;;;3.47;;
11548;SDS011;61444;59.472;18.306;2023-05-10T09:09:13;7.40;;;3.60;;
11548;SDS011;61444;59.472;18.306;2023-05-10T09:11:22;8.47;;;4.40;;
11548;SDS011;61444;59.472;18.306;2023-05-10T09:13:32;6.23;;;4.43;;
11548;SDS011;61444;59.472;18.306;2023-05-10T09:15:41;6.50;;;4.10;;
11548;SDS011;61444;59.472;18.306;2023-05-10T09:17:51;4.83;;;3.80;;
11548;SDS011;61444;59.472;18.306;2023-05-10T09:20:00;4.63;;;3.93;;
11548;SDS011;61444;59.472;18.306;2023-05-10T09:22:10;7.60;;;4.03;;
11548;SDS011;61444;59.472;18.306;2023-05-10T09:24:20;3.97;;;3.40;;
11548;SDS011;61444;59.472;18.306;2023-05-10T09:26:33;6.80;;;3.90;;
11548;SDS011;61444;59.472;18.306;2023-05-10T09:28:50;4.83;;;4.00;;
11548;SDS011;61444;59.472;18.306;2023-05-10T09:30:59;7.67;;;4.03;;
11548;SDS011;61444;59.472;18.306;2023-05-10T09:33:08;7.93;;;3.50;;
11548;SDS011;61444;59.472;18.306;2023-05-10T09:35:17;6.63;;;3.40;;
11548;SDS011;61444;59.472;18.306;2023-05-10T09:37:29;4.83;;;3.77;;
11548;SDS011;61444;59.472;18.306;2023-05-10T09:39:39;7.97;;;3.43;;
11548;SDS011;61444;59.472;18.306;2023-05-10T09:41:48;5.17;;;3.50;;
11548;SDS011;61444;59.472;18.306;2023-05-10T09:43:57;7.83;;;4.10;;
11548;SDS011;61444;59.472;18.306;2023-05-10T09:46:08;4.33;;;3.83;;
11548;SDS011;61444;59.472;18.306;2023-05-10T09:48:17;6.47;;;3.67;;
11548;SDS011;61444;59.472;18.306;2023-05-10T09:50:26;6.47;;;3.27;;
11548;SDS011;61444;59.472;18.306;2023-05-10T09:52:45;3.73;;;3.27;;
11548;SDS011;61444;59.472;18.306;2023-05-10T09:54:57;3.93;;;3.43;;
11548;SDS011;61444;59.472;18.306;2023-05-10T09:57:06;4.50;;;3.30;;
11548;SDS011;61444;59.472;18.306;2023-05-10T09:59:27;7.03;;;3.67;;
11548;SDS011;61444;59.472;18.306;2023-05-10T10:01:37;4.87;;;3.53;;
11548;SDS011;61444;59.472;18.306;2023-05-10T10:03:46;7.50;;;3.70;;
11548;SDS011;61444;59.472;18.306;2023-05-10T10:05:54;3.83;;;3.17;;
11548;SDS011;61444;59.472;18.306;2023-05-10T10:08:04;3.80;;;3.50;;
11548;SDS011;61444;59.472;18.306;2023-05-10T10:10:14;5.07;;;3.60;;
11548;SDS011;61444;59.472;18.306;2023-05-10T10:12:23;4.63;;;3.40;;
11548;SDS011;61444;59.472;18.306;2023-05-10T10:14:33;6.90;;;3.90;;
11548;SDS011;61444;59.472;18.306;2023-05-10T10:16:42;4.93;;;3.50;;
11548;SDS011;61444;59.472;18.306;2023-05-10T10:19:10;6.80;;;3.23;;
11548;SDS011;61444;59.472;18.306;2023-05-10T10:21:19;5.10;;;3.37;;
11548;SDS011;61444;59.472;18.306;2023-05-10T10:23:28;5.87;;;3.30;;
11548;SDS011;61444;59.472;18.306;2023-05-10T10:25:38;5.70;;;3.50;;
11548;SDS011;61444;59.472;18.306;2023-05-10T10:27:48;5.37;;;3.40;;
11548;SDS011;61444;59.472;18.306;2023-05-10T10:30:07;5.87;;;3.10;;
11548;SDS011;61444;59.472;18.306;2023-05-10T10:32:26;7.20;;;3.70;;
11548;SDS011;61444;59.472;18.306;2023-05-10T10:34:43;4.97;;;3.70;;
11548;SDS011;61444;59.472;18.306;2023-05-10T10:36:52;5.70;;;2.97;;
11548;SDS011;61444;59.472;18.306;2023-05-10T10:39:07;6.13;;;3.30;;
11548;SDS011;61444;59.472;18.306;2023-05-10T10:41:28;4.40;;;3.30;;
11548;SDS011;61444;59.472;18.306;2023-05-10T10:43:39;4.57;;;3.77;;
11548;SDS011;61444;59.472;18.306;2023-05-10T10:45:48;4.50;;;3.60;;
11548;SDS011;61444;59.472;18.306;2023-05-10T10:48:21;5.27;;;3.60;;
11548;SDS011;61444;59.472;18.306;2023-05-10T10:50:30;4.37;;;3.23;;
11548;SDS011;61444;59.472;18.306;2023-05-10T10:52:50;4.43;;;3.50;;
11548;SDS011;61444;59.472;18.306;2023-05-10T10:55:00;3.87;;;3.00;;
11548;SDS011;61444;59.472;18.306;2023-05-10T10:57:12;3.87;;;3.33;;
11548;SDS011;61444;59.472;18.306;2023-05-10T10:59:26;7.13;;;3.37;;
11548;SDS011;61444;59.472;18.306;2023-05-10T11:01:35;4.60;;;2.87;;
11548;SDS011;61444;59.472;18.306;2023-05-10T11:06:29;9.00;;;3.47;;
11548;SDS011;61444;59.472;18.306;2023-05-10T11:08:42;4.00;;;3.60;;
11548;SDS011;61444;59.472;18.306;2023-05-10T11:10:53;3.30;;;3.00;;
11548;SDS011;61444;59.472;18.306;2023-05-10T11:13:12;10.00;;;3.13;;
11548;SDS011;61444;59.472;18.306;2023-05-10T11:15:28;4.57;;;3.23;;
11548;SDS011;61444;59.472;18.306;2023-05-10T11:17:37;3.90;;;3.23;;
11548;SDS011;61444;59.472;18.306;2023-05-10T11:22:16;5.10;;;3.13;;
11548;SDS011;61444;59.472;18.306;2023-05-10T11:24:26;4.83;;;2.93;;
11548;SDS011;61444;59.472;18.306;2023-05-10T11:26:35;4.63;;;2.87;;
11548;SDS011;61444;59.472;18.306;2023-05-10T11:28:46;3.43;;;3.10;;
11548;SDS011;61444;59.472;18.306;2023-05-10T11:30:56;7.73;;;2.97;;
11548;SDS011;61444;59.472;18.306;2023-05-10T11:33:05;5.10;;;3.00;;
11548;SDS011;61444;59.472;18.306;2023-05-10T11:35:15;3.37;;;2.87;;
11548;SDS011;61444;59.472;18.306;2023-05-10T11:37:23;4.50;;;3.03;;
11548;SDS011;61444;59.472;18.306;2023-05-10T11:39:38;4.43;;;2.90;;
11548;SDS011;61444;59.472;18.306;2023-05-10T11:41:53;5.40;;;3.00;;
11548;SDS011;61444;59.472;18.306;2023-05-10T11:44:04;3.17;;;2.90;;
11548;SDS011;61444;59.472;18.306;2023-05-10T11:46:13;3.83;;;3.23;;
11548;SDS011;61444;59.472;18.306;2023-05-10T11:48:22;6.97;;;3.47;;
11548;SDS011;61444;59.472;18.306;2023-05-10T11:50:30;3.57;;;3.27;;
11548;SDS011;61444;59.472;18.306;2023-05-10T11:52:39;4.57;;;3.13;;
11548;SDS011;61444;59.472;18.306;2023-05-10T11:54:50;4.60;;;3.00;;
11548;SDS011;61444;59.472;18.306;2023-05-10T11:57:00;5.27;;;3.20;;
11548;SDS011;61444;59.472;18.306;2023-05-10T11:59:10;8.03;;;3.27;;
11548;SDS011;61444;59.472;18.306;2023-05-10T12:01:22;3.80;;;2.90;;
11548;SDS011;61444;59.472;18.306;2023-05-10T12:03:31;4.33;;;3.23;;
11548;SDS011;61444;59.472;18.306;2023-05-10T12:05:40;4.33;;;2.97;;
11548;SDS011;61444;59.472;18.306;2023-05-10T12:07:49;7.57;;;3.13;;
11548;SDS011;61444;59.472;18.306;2023-05-10T12:10:05;3.77;;;3.40;;
11548;SDS011;61444;59.472;18.306;2023-05-10T12:12:15;5.93;;;3.30;;
11548;SDS011;61444;59.472;18.306;2023-05-10T12:14:26;5.50;;;3.10;;
11548;SDS011;61444;59.472;18.306;2023-05-10T12:16:35;4.33;;;3.23;;
11548;SDS011;61444;59.472;18.306;2023-05-10T12:18:44;4.37;;;3.10;;
11548;SDS011;61444;59.472;18.306;2023-05-10T12:20:53;3.87;;;3.13;;
11548;SDS011;61444;59.472;18.306;2023-05-10T12:23:02;4.03;;;3.07;;
11548;SDS011;61444;59.472;18.306;2023-05-10T12:25:11;6.63;;;3.10;;
11548;SDS011;61444;59.472;18.306;2023-05-10T12:27:20;3.40;;;3.10;;
11548;SDS011;61444;59.472;18.306;2023-05-10T12:29:30;5.70;;;3.33;;
11548;SDS011;61444;59.472;18.306;2023-05-10T12:31:49;4.93;;;3.53;;
11548;SDS011;61444;59.472;18.306;2023-05-10T12:34:00;7.70;;;2.87;;
11548;SDS011;61444;59.472;18.306;2023-05-10T12:36:09;4.37;;;3.00;;
11548;SDS011;61444;59.472;18.306;2023-05-10T12:38:26;4.60;;;3.00;;
11548;SDS011;61444;59.472;18.306;2023-05-10T12:40:37;7.80;;;3.37;;
11548;SDS011;61444;59.472;18.306;2023-05-10T12:42:46;3.60;;;2.70;;
11548;SDS011;61444;59.472;18.306;2023-05-10T12:44:57;3.90;;;3.23;;
11548;SDS011;61444;59.472;18.306;2023-05-10T12:47:06;5.10;;;3.47;;
11548;SDS011;61444;59.472;18.306;2023-05-10T12:49:15;3.63;;;3.00;;
11548;SDS011;61444;59.472;18.306;2023-05-10T12:51:25;8.20;;;3.47;;
11548;SDS011;61444;59.472;18.306;2023-05-10T12:53:34;5.63;;;3.00;;
11548;SDS011;61444;59.472;18.306;2023-05-10T12:55:42;4.53;;;2.70;;
11548;SDS011;61444;59.472;18.306;2023-05-10T12:57:51;4.07;;;2.97;;
11548;SDS011;61444;59.472;18.306;2023-05-10T13:00:02;5.07;;;3.23;;
11548;SDS011;61444;59.472;18.306;2023-05-10T13:02:11;4.83;;;3.20;;
11548;SDS011;61444;59.472;18.306;2023-05-10T13:04:21;7.77;;;3.67;;
11548;SDS011;61444;59.472;18.306;2023-05-10T13:06:29;6.60;;;3.17;;